Time;durP1;ratioP1;P1;durP2;ratioP2;P2;SDS_P1;SDS_P2;PMS_P1;PMS_P2;Temp;Humidity;BMP_temperature;BMP_pressure;BME280_temperature;BME280_humidity;BME280_pressure;Samples;Min_cycle;Max_cycle;Signal;HPM_P1;HPM_P2
2022/01/25 00:25:55;;;;;;;3.80;1.40;;;18.30;54.60;;;;;;6261429;22;20132;-78
2022/01/25 00:28:23;;;;;;;5.20;1.45;;;18.30;54.80;;;;;;6284734;22;20148;-79
2022/01/25 00:33:26;;;;;;;4.57;1.30;;;18.30;54.70;;;;;;6260087;22;20143;-80
2022/01/25 00:35:52;;;;;;;5.63;1.75;;;18.20;54.50;;;;;;6254931;22;20128;-79
2022/01/25 00:38:18;;;;;;;5.00;1.48;;;18.30;54.70;;;;;;6280282;22;20170;-79
2022/01/25 00:40:44;;;;;;;2.30;1.40;;;18.30;54.70;;;;;;6254634;22;20140;-79
2022/01/25 00:43:09;;;;;;;3.50;1.50;;;18.30;54.80;;;;;;6279857;22;20629;-80
2022/01/25 00:45:35;;;;;;;3.75;1.52;;;18.20;54.60;;;;;;6255051;22;20147;-80
2022/01/25 00:48:03;;;;;;;4.05;1.30;;;18.20;54.60;;;;;;6229357;22;20469;-80
2022/01/25 00:50:40;;;;;;;5.57;1.50;;;18.20;54.60;;;;;;6307499;22;20131;-80
2022/01/25 00:55:39;;;;;;;4.40;1.40;;;18.20;54.60;;;;;;6281814;22;20124;-81
2022/01/25 00:58:05;;;;;;;2.70;1.48;;;18.20;54.80;;;;;;6236608;22;20267;-80
2022/01/25 01:00:31;;;;;;;3.75;1.50;;;18.20;54.70;;;;;;6198599;23;20152;-80
2022/01/25 01:02:58;;;;;;;2.85;1.30;;;18.30;54.60;;;;;;6223384;23;20195;-79
2022/01/25 01:05:25;;;;;;;2.85;1.48;;;18.20;54.60;;;;;;6223807;23;20132;-80
2022/01/25 01:07:50;;;;;;;4.03;1.48;;;18.30;54.50;;;;;;6198426;23;20487;-81
2022/01/25 01:10:20;;;;;;;2.15;1.10;;;18.20;54.50;;;;;;6223436;23;20143;-80
2022/01/25 01:15:38;;;;;;;3.17;1.42;;;18.20;54.60;;;;;;6209306;23;20560;-80
2022/01/25 01:31:36;;;;;;;4.65;1.25;;;18.20;54.60;;;;;;6147624;23;20205;-79
2022/01/25 01:34:38;;;;;;;3.40;1.60;;;18.20;54.60;;;;;;6169799;23;20205;-80
2022/01/25 01:40:08;;;;;;;3.35;1.38;;;18.20;54.60;;;;;;6169358;23;20162;-80
2022/01/25 01:42:53;;;;;;;4.20;1.38;;;18.20;54.40;;;;;;6165481;23;20627;-79
2022/01/25 01:45:13;;;;;;;3.88;1.40;;;18.20;54.30;;;;;;6165234;23;20664;-80
2022/01/25 01:47:50;;;;;;;3.22;1.30;;;18.20;54.40;;;;;;6170753;23;20179;-79
2022/01/25 01:50:28;;;;;;;1.95;1.30;;;18.20;54.50;;;;;;6147936;23;20258;-79
2022/01/25 01:52:55;;;;;;;3.50;1.08;;;18.20;54.60;;;;;;6133790;23;20475;-80
2022/01/25 01:55:21;;;;;;;3.55;1.27;;;18.20;54.70;;;;;;6149149;23;20156;-80
2022/01/25 01:57:48;;;;;;;3.25;1.20;;;18.10;54.40;;;;;;6225168;22;20572;-79
2022/01/25 02:00:15;;;;;;;2.03;1.23;;;18.10;54.50;;;;;;6198710;23;20148;-79
2022/01/25 02:02:42;;;;;;;2.72;1.30;;;18.20;54.50;;;;;;6122655;23;20233;-80
2022/01/25 02:05:10;;;;;;;2.97;1.30;;;18.20;54.40;;;;;;6174149;23;20156;-80
2022/01/25 02:07:38;;;;;;;4.00;1.40;;;18.10;54.30;;;;;;6125038;23;20152;-80
2022/01/25 02:10:06;;;;;;;2.65;1.40;;;18.20;54.20;;;;;;6124813;23;20198;-79
2022/01/25 02:12:34;;;;;;;5.05;1.40;;;18.10;54.30;;;;;;6174341;23;20163;-80
2022/01/25 02:15:03;;;;;;;3.28;1.23;;;18.10;54.40;;;;;;6149616;23;20236;-80
2022/01/25 02:23:17;;;;;;;2.40;1.13;;;18.10;54.30;;;;;;6146340;23;20184;-79
2022/01/25 02:25:46;;;;;;;3.70;1.15;;;18.10;54.20;;;;;;6167375;23;20249;-80
2022/01/25 02:28:13;;;;;;;4.53;1.60;;;18.10;54.50;;;;;;6149332;23;20159;-80
2022/01/25 02:30:39;;;;;;;2.03;1.30;;;18.10;54.60;;;;;;6173711;23;20149;-80
2022/01/25 02:33:06;;;;;;;4.20;1.60;;;18.10;54.30;;;;;;6200259;23;20143;-79
2022/01/25 02:35:33;;;;;;;3.28;1.20;;;18.10;54.50;;;;;;6148694;23;20237;-81
2022/01/25 02:38:00;;;;;;;2.55;1.50;;;18.10;54.50;;;;;;6149221;23;20156;-81
2022/01/25 02:40:28;;;;;;;2.08;1.38;;;18.00;54.50;;;;;;6124569;23;20178;-81
2022/01/25 02:42:53;;;;;;;3.90;1.30;;;18.00;54.60;;;;;;6173334;23;20210;-79
2022/01/25 02:45:21;;;;;;;3.40;1.08;;;18.10;54.60;;;;;;6224416;23;20471;-81
2022/01/25 02:50:33;;;;;;;4.57;1.55;;;18.10;54.40;;;;;;6209257;23;20185;-82
2022/01/25 02:52:59;;;;;;;2.42;1.15;;;18.10;54.50;;;;;;6224911;23;20171;-81
2022/01/25 02:55:24;;;;;;;2.05;1.13;;;18.10;54.60;;;;;;6122384;23;20518;-81
2022/01/25 02:57:50;;;;;;;6.68;1.42;;;18.10;54.50;;;;;;6198993;23;20223;-79
2022/01/25 03:00:16;;;;;;;2.35;1.10;;;18.10;54.40;;;;;;6199520;23;20227;-79
2022/01/25 03:02:42;;;;;;;2.95;1.20;;;18.00;54.30;;;;;;6123050;23;20192;-81
2022/01/25 03:05:08;;;;;;;3.92;1.42;;;18.10;54.20;;;;;;6224553;23;20137;-79
2022/01/25 03:07:36;;;;;;;2.45;1.35;;;18.10;54.50;;;;;;6173931;23;20222;-80
2022/01/25 03:10:05;;;;;;;2.80;1.20;;;18.10;54.40;;;;;;6199853;23;20136;-80
2022/01/25 03:12:41;;;;;;;2.33;1.27;;;18.00;54.30;;;;;;6149038;23;20179;-80
2022/01/25 03:15:31;;;;;;;4.10;1.25;;;18.00;54.50;;;;;;6154104;23;20183;-81
2022/01/25 03:18:06;;;;;;;2.63;1.20;;;18.10;54.50;;;;;;6165000;23;20152;-81
2022/01/25 03:20:49;;;;;;;2.25;1.10;;;18.10;54.20;;;;;;6147383;23;20152;-81
2022/01/25 03:23:19;;;;;;;4.72;1.30;;;18.10;54.30;;;;;;6166930;23;20195;-80
2022/01/25 03:25:47;;;;;;;2.58;1.27;;;18.00;54.30;;;;;;6148632;23;20206;-79
2022/01/25 03:28:16;;;;;;;2.55;1.50;;;18.10;54.40;;;;;;6148766;23;20483;-80
2022/01/25 03:30:44;;;;;;;3.97;1.40;;;18.10;54.20;;;;;;6149127;23;20160;-79
2022/01/25 03:33:13;;;;;;;5.72;1.23;;;18.00;54.40;;;;;;6148502;23;20213;-80
2022/01/25 03:35:40;;;;;;;3.47;1.33;;;18.00;54.40;;;;;;6173015;23;20158;-79
2022/01/25 03:38:07;;;;;;;3.75;1.30;;;18.10;54.20;;;;;;6173347;23;20152;-80
2022/01/25 03:40:35;;;;;;;2.08;1.23;;;18.00;54.30;;;;;;6148821;23;20179;-80
2022/01/25 03:43:03;;;;;;;2.97;1.25;;;18.10;54.00;;;;;;6148589;23;20187;-80
2022/01/25 03:45:33;;;;;;;3.17;1.40;;;18.10;54.30;;;;;;6122367;23;20571;-80
2022/01/25 03:49:49;;;;;;;3.15;1.30;;;18.00;54.20;;;;;;6148210;23;20148;-80
2022/01/25 03:50:49;;;;;;;3.10;1.20;;;18.00;54.10;;;;;;6143995;23;20186;-79
2022/01/25 03:53:17;;;;;;;4.18;1.45;;;18.00;54.00;;;;;;6124839;23;20258;-81
2022/01/25 03:55:44;;;;;;;6.65;1.52;;;18.10;53.80;;;;;;6149062;23;20152;-80
2022/01/25 03:58:09;;;;;;;6.32;1.40;;;18.10;53.90;;;;;;6136377;23;20238;-79
2022/01/25 04:00:37;;;;;;;4.40;1.42;;;18.10;54.10;;;;;;6224046;23;20149;-80
2022/01/25 04:03:09;;;;;;;2.13;1.40;;;18.10;54.10;;;;;;6198399;23;20198;-81
2022/01/25 04:05:48;;;;;;;2.70;1.40;;;18.00;54.20;;;;;;6195202;23;20596;-79
2022/01/25 04:08:15;;;;;;;3.28;1.38;;;18.00;54.10;;;;;;6201155;23;20517;-80
2022/01/25 04:10:41;;;;;;;3.10;1.20;;;18.00;53.90;;;;;;6172941;23;20162;-80
2022/01/25 04:13:08;;;;;;;1.90;1.23;;;18.10;53.90;;;;;;6224042;23;20213;-81
2022/01/25 04:15:35;;;;;;;3.28;1.35;;;18.00;54.20;;;;;;6122159;23;20623;-80
2022/01/25 04:18:19;;;;;;;1.80;1.15;;;18.00;53.90;;;;;;6249272;22;20463;-80
2022/01/25 04:20:57;;;;;;;3.60;1.27;;;18.10;53.80;;;;;;6224013;23;20140;-81
2022/01/25 04:26:07;;;;;;;2.70;1.23;;;18.00;53.90;;;;;;6231424;22;20141;-80
2022/01/25 04:28:33;;;;;;;4.18;1.58;;;18.10;54.00;;;;;;6249597;22;20223;-79
2022/01/25 04:31:00;;;;;;;1.80;1.40;;;18.00;53.90;;;;;;6249848;22;20137;-79
2022/01/25 04:33:38;;;;;;;3.00;1.30;;;18.00;53.90;;;;;;6224194;23;20167;-80
2022/01/25 04:36:38;;;;;;;4.00;1.83;;;18.00;54.00;;;;;;6236514;22;20139;-80
2022/01/25 04:49:31;;;;;;;2.35;1.25;;;18.00;53.80;;;;;;6234206;22;20173;-79
2022/01/25 04:52:03;;;;;;;2.72;1.40;;;18.00;53.90;;;;;;6246458;22;20140;-80
2022/01/25 05:00:01;;;;;;;1.85;1.02;;;18.00;53.80;;;;;;6285332;22;20618;-80
2022/01/25 05:02:41;;;;;;;2.20;1.33;;;18.00;53.60;;;;;;6212507;22;20560;-80
2022/01/25 05:05:15;;;;;;;3.00;1.38;;;18.00;53.90;;;;;;6239533;22;20170;-80
2022/01/25 05:07:55;;;;;;;2.25;1.30;;;18.00;53.90;;;;;;6259144;22;20239;-79
2022/01/25 05:10:22;;;;;;;1.90;1.27;;;18.00;54.10;;;;;;6213243;22;20258;-80
2022/01/25 05:13:08;;;;;;;3.00;1.35;;;18.00;53.80;;;;;;6255739;22;20156;-80
2022/01/25 05:18:16;;;;;;;4.68;1.45;;;18.00;53.80;;;;;;6284468;22;20140;-81
2022/01/25 05:23:20;;;;;;;2.95;1.17;;;17.90;53.80;;;;;;6284638;22;20168;-81
2022/01/25 05:25:46;;;;;;;3.35;1.10;;;17.90;53.30;;;;;;6309303;22;20132;-80
2022/01/25 05:28:12;;;;;;;3.20;1.13;;;18.00;53.40;;;;;;6309223;22;20207;-80
2022/01/25 05:30:38;;;;;;;2.05;1.30;;;18.00;53.60;;;;;;6309218;22;20135;-81
2022/01/25 05:33:04;;;;;;;2.53;1.40;;;18.00;53.40;;;;;;6309043;22;20143;-80
2022/01/25 05:35:30;;;;;;;2.15;1.20;;;18.00;53.50;;;;;;6281955;22;20151;-81
2022/01/25 05:37:56;;;;;;;3.20;1.50;;;18.10;53.20;;;;;;6282727;22;20143;-81
2022/01/25 05:48:21;;;;;;;1.65;1.00;;;18.10;53.10;;;;;;6284492;22;20456;-80
2022/01/25 05:50:47;;;;;;;2.33;1.60;;;18.10;53.00;;;;;;6281746;22;20162;-80
2022/01/25 05:53:12;;;;;;;1.42;1.15;;;18.20;53.20;;;;;;6256624;22;20234;-81
2022/01/25 05:55:38;;;;;;;1.95;1.30;;;18.20;52.80;;;;;;6281682;22;20578;-81
2022/01/25 05:58:04;;;;;;;2.88;1.13;;;18.20;52.60;;;;;;6281403;22;20187;-79
2022/01/25 06:00:30;;;;;;;1.63;1.02;;;18.30;52.70;;;;;;6256430;22;20214;-79
2022/01/25 06:02:56;;;;;;;2.92;1.35;;;18.30;52.70;;;;;;6308911;22;20216;-80
2022/01/25 06:05:23;;;;;;;2.63;1.10;;;18.20;52.30;;;;;;6256168;22;20148;-80
2022/01/25 06:07:50;;;;;;;2.50;1.30;;;18.20;52.40;;;;;;6309026;22;20155;-79
2022/01/25 06:10:16;;;;;;;1.63;1.20;;;18.20;52.50;;;;;;6281240;22;20128;-80
2022/01/25 06:12:44;;;;;;;1.70;1.10;;;18.20;52.50;;;;;;6256663;22;20144;-79
2022/01/25 06:15:10;;;;;;;2.38;1.13;;;18.30;52.30;;;;;;6308745;22;20136;-80
2022/01/25 06:17:36;;;;;;;3.08;1.40;;;18.30;52.10;;;;;;6256167;22;20129;-80
2022/01/25 06:20:03;;;;;;;2.00;1.08;;;18.30;52.30;;;;;;6281671;22;20132;-80
2022/01/25 06:22:29;;;;;;;1.20;1.00;;;18.30;52.30;;;;;;6256422;22;20176;-80
2022/01/25 06:24:54;;;;;;;2.92;1.10;;;18.30;51.80;;;;;;6309002;22;20582;-80
2022/01/25 06:27:20;;;;;;;1.30;1.15;;;18.30;52.10;;;;;;6255833;22;20149;-81
2022/01/25 06:29:47;;;;;;;1.50;0.95;;;18.30;52.20;;;;;;6255688;22;20143;-80
2022/01/25 06:32:13;;;;;;;1.92;1.20;;;18.30;51.70;;;;;;6281689;22;20147;-80
2022/01/25 06:34:38;;;;;;;2.65;1.17;;;18.30;51.90;;;;;;6308701;22;20559;-80
2022/01/25 06:37:04;;;;;;;4.55;1.60;;;18.30;51.70;;;;;;6256061;22;20560;-80
2022/01/25 06:39:30;;;;;;;1.85;1.15;;;18.30;51.90;;;;;;6308707;22;20171;-79
2022/01/25 06:41:56;;;;;;;2.25;1.30;;;18.30;51.70;;;;;;6255671;22;20476;-80
2022/01/25 06:44:21;;;;;;;2.88;1.50;;;18.30;52.10;;;;;;6281710;22;20560;-80
2022/01/25 06:46:47;;;;;;;1.10;0.93;;;18.30;52.20;;;;;;6255496;22;20222;-80
2022/01/25 06:49:13;;;;;;;3.58;1.05;;;18.30;51.90;;;;;;6255732;22;20132;-80
2022/01/25 06:51:40;;;;;;;1.27;1.02;;;18.30;51.70;;;;;;6256478;22;20466;-79
2022/01/25 06:54:06;;;;;;;1.92;1.20;;;18.30;51.70;;;;;;6230495;22;20167;-81
2022/01/25 06:56:31;;;;;;;2.30;0.90;;;18.30;51.90;;;;;;6230274;22;20144;-81
2022/01/25 06:58:57;;;;;;;1.30;0.85;;;18.30;51.80;;;;;;6200918;23;20539;-80
2022/01/25 07:01:23;;;;;;;2.50;1.30;;;18.30;51.70;;;;;;6200022;23;20240;-79
2022/01/25 07:03:49;;;;;;;2.00;1.05;;;18.30;51.80;;;;;;6225104;23;20155;-80
2022/01/25 07:06:19;;;;;;;2.58;1.30;;;18.30;51.80;;;;;;6225209;23;20451;-81
2022/01/25 07:08:45;;;;;;;1.77;1.00;;;18.40;51.80;;;;;;6173794;23;20153;-80
2022/01/25 07:11:12;;;;;;;2.15;1.20;;;18.30;51.50;;;;;;6199296;23;20524;-80
2022/01/25 07:13:38;;;;;;;2.22;1.25;;;18.30;51.60;;;;;;6199967;23;20264;-81
2022/01/25 07:16:04;;;;;;;1.73;1.20;;;18.30;51.50;;;;;;6123394;23;20163;-80
2022/01/25 07:18:30;;;;;;;2.40;1.00;;;18.40;51.30;;;;;;6200626;23;20156;-80
2022/01/25 07:20:57;;;;;;;1.58;1.15;;;18.40;51.50;;;;;;6224404;23;20136;-80
2022/01/25 07:23:24;;;;;;;2.72;1.40;;;18.30;51.60;;;;;;6148955;23;20184;-81
2022/01/25 07:25:51;;;;;;;1.67;1.10;;;18.30;52.10;;;;;;6148577;23;20224;-80
2022/01/25 07:28:16;;;;;;;1.15;1.02;;;18.30;52.00;;;;;;6172435;23;20167;-81
2022/01/25 07:30:42;;;;;;;1.55;1.05;;;18.30;51.70;;;;;;6224610;23;20152;-79
2022/01/25 07:33:08;;;;;;;1.88;0.93;;;18.30;52.00;;;;;;6174995;23;20464;-80
2022/01/25 07:35:34;;;;;;;4.38;1.13;;;18.20;52.00;;;;;;6174731;23;20251;-80
2022/01/25 07:38:00;;;;;;;2.60;1.00;;;18.30;52.00;;;;;;6174005;23;20144;-79
2022/01/25 07:40:25;;;;;;;2.28;1.00;;;18.30;51.50;;;;;;6201582;23;20148;-80
2022/01/25 07:42:51;;;;;;;2.15;1.30;;;18.30;51.60;;;;;;6123715;23;20603;-79
2022/01/25 07:45:17;;;;;;;2.10;1.25;;;18.30;51.50;;;;;;6225319;23;20271;-80
2022/01/25 07:47:42;;;;;;;1.17;0.98;;;18.40;50.80;;;;;;6200368;23;20132;-79
2022/01/25 07:50:09;;;;;;;2.53;1.00;;;18.40;50.90;;;;;;6225458;23;20223;-80
2022/01/25 07:52:34;;;;;;;2.10;1.30;;;18.50;50.10;;;;;;6201422;23;20207;-79
2022/01/25 07:55:00;;;;;;;2.63;1.23;;;18.50;50.10;;;;;;6201658;23;20148;-79
2022/01/25 07:57:26;;;;;;;1.08;0.82;;;18.50;49.90;;;;;;6225280;22;20267;-80
2022/01/25 07:59:51;;;;;;;1.50;1.05;;;18.50;50.30;;;;;;6201019;23;20145;-79
2022/01/25 08:02:17;;;;;;;1.73;0.98;;;18.50;50.50;;;;;;6177749;23;20186;-79
2022/01/25 08:04:43;;;;;;;3.13;1.20;;;18.50;50.10;;;;;;6176130;23;20145;-80
2022/01/25 08:07:09;;;;;;;2.58;0.90;;;18.50;50.50;;;;;;6200734;23;20526;-79
2022/01/25 08:09:34;;;;;;;1.67;1.02;;;18.50;50.90;;;;;;6124527;23;20155;-80
2022/01/25 08:12:01;;;;;;;1.70;1.10;;;18.50;50.00;;;;;;6225497;23;20218;-79
2022/01/25 08:14:27;;;;;;;1.67;1.00;;;18.60;50.40;;;;;;6225679;23;20132;-80
2022/01/25 08:16:53;;;;;;;2.45;1.20;;;18.60;50.10;;;;;;6225891;23;20140;-80
2022/01/25 08:19:20;;;;;;;0.88;0.80;;;18.50;50.00;;;;;;6200409;23;20286;-80
2022/01/25 08:21:47;;;;;;;2.17;1.23;;;18.60;50.50;;;;;;6124493;23;20172;-79
2022/01/25 08:24:15;;;;;;;1.23;0.98;;;18.60;50.10;;;;;;6150795;23;20162;-80
2022/01/25 08:26:42;;;;;;;1.70;1.05;;;18.60;50.20;;;;;;6178284;23;20277;-80
2022/01/25 08:29:09;;;;;;;1.08;0.90;;;18.60;50.30;;;;;;6232853;23;20144;-79
2022/01/25 08:31:34;;;;;;;2.13;0.80;;;18.60;50.70;;;;;;6228423;23;20144;-79
2022/01/25 08:34:01;;;;;;;1.58;1.00;;;18.60;50.50;;;;;;6202638;23;20144;-80
2022/01/25 08:36:27;;;;;;;1.27;1.10;;;18.70;50.60;;;;;;6201713;23;20482;-79
2022/01/25 08:38:53;;;;;;;1.75;1.08;;;18.60;50.20;;;;;;6200524;23;20168;-80
2022/01/25 08:41:19;;;;;;;1.90;1.30;;;18.70;49.70;;;;;;6176287;23;20174;-80
2022/01/25 08:43:45;;;;;;;4.03;1.27;;;18.70;49.70;;;;;;6200895;23;20222;-80
2022/01/25 08:46:14;;;;;;;6.35;1.15;;;18.70;50.10;;;;;;6132150;23;20141;-80
2022/01/25 08:48:42;;;;;;;2.63;1.10;;;18.60;50.20;;;;;;6174867;23;20626;-80
2022/01/25 08:51:11;;;;;;;2.03;1.10;;;18.70;50.90;;;;;;6150645;23;20243;-79
2022/01/25 08:53:39;;;;;;;3.28;1.15;;;18.70;50.80;;;;;;6174850;23;20169;-80
2022/01/25 08:56:05;;;;;;;2.42;1.00;;;18.60;51.60;;;;;;6149533;23;20242;-80
2022/01/25 08:58:31;;;;;;;3.83;1.15;;;18.60;50.80;;;;;;6261015;22;20220;-80
2022/01/25 09:00:57;;;;;;;2.83;1.25;;;18.70;51.00;;;;;;6308195;22;20513;-79
2022/01/25 09:03:23;;;;;;;4.55;1.20;;;18.70;51.00;;;;;;6280065;22;20656;-80
2022/01/25 09:05:49;;;;;;;1.88;1.05;;;18.70;50.20;;;;;;6307214;22;20140;-80
2022/01/25 09:08:20;;;;;;;2.60;1.10;;;18.70;49.90;;;;;;6306955;22;20143;-80
2022/01/25 09:10:50;;;;;;;3.60;1.20;;;18.70;49.70;;;;;;6281284;22;20125;-80
2022/01/25 09:13:17;;;;;;;5.47;1.13;;;18.80;50.20;;;;;;6281041;22;20136;-80
2022/01/25 09:15:42;;;;;;;2.72;0.90;;;18.70;49.90;;;;;;6280161;22;20190;-80
2022/01/25 09:18:08;;;;;;;4.75;1.27;;;18.80;49.80;;;;;;6307351;22;20140;-80
2022/01/25 09:20:34;;;;;;;18.13;2.78;;;18.80;50.20;;;;;;6308024;22;20128;-80
2022/01/25 09:22:59;;;;;;;10.13;1.88;;;18.80;50.70;;;;;;6280108;22;20168;-79
2022/01/25 09:25:25;;;;;;;15.50;1.88;;;18.80;50.00;;;;;;6307083;22;20139;-80
2022/01/25 09:27:51;;;;;;;8.80;2.30;;;18.80;49.90;;;;;;6307235;22;20133;-80
2022/01/25 09:30:17;;;;;;;10.18;1.83;;;18.80;50.10;;;;;;6307986;22;20552;-81
2022/01/25 09:32:43;;;;;;;9.90;1.85;;;18.80;49.90;;;;;;6307013;22;20128;-81
2022/01/25 09:35:09;;;;;;;12.68;1.70;;;18.80;50.40;;;;;;6280222;22;20185;-79
2022/01/25 09:37:35;;;;;;;9.77;1.75;;;18.80;50.20;;;;;;6253970;22;20137;-80
2022/01/25 09:40:01;;;;;;;10.02;1.50;;;18.80;49.90;;;;;;6307098;22;20458;-80
2022/01/25 09:42:29;;;;;;;4.38;1.40;;;18.80;50.30;;;;;;6279947;22;20172;-80
2022/01/25 09:44:54;;;;;;;5.00;1.20;;;18.80;51.00;;;;;;6230599;22;20135;-79
2022/01/25 09:47:20;;;;;;;6.85;1.38;;;18.80;50.50;;;;;;6282621;22;20182;-80
2022/01/25 09:49:45;;;;;;;6.47;1.30;;;18.80;50.40;;;;;;6309115;22;20551;-80
2022/01/25 09:52:11;;;;;;;3.08;1.30;;;18.80;50.50;;;;;;6309102;22;20132;-80
2022/01/25 09:54:37;;;;;;;4.75;1.20;;;18.90;49.60;;;;;;6282793;22;20140;-80
2022/01/25 09:57:03;;;;;;;9.32;1.42;;;18.90;50.50;;;;;;6308659;22;20214;-80
2022/01/25 09:59:29;;;;;;;5.07;1.42;;;18.90;50.00;;;;;;6281920;22;20155;-80
2022/01/25 10:01:55;;;;;;;5.20;1.30;;;18.90;49.90;;;;;;6255741;22;20172;-79
2022/01/25 10:04:25;;;;;;;6.60;1.23;;;18.90;49.70;;;;;;6256058;22;20226;-79
2022/01/25 10:06:51;;;;;;;3.22;1.10;;;19.00;49.80;;;;;;6308599;22;20160;-80
2022/01/25 10:09:17;;;;;;;4.05;1.27;;;19.00;49.70;;;;;;6281380;22;20135;-80
2022/01/25 10:11:42;;;;;;;5.88;1.40;;;19.00;49.40;;;;;;6308775;22;20132;-80
2022/01/25 10:14:08;;;;;;;4.97;1.30;;;19.00;50.30;;;;;;6281873;22;20135;-79
2022/01/25 10:16:35;;;;;;;6.05;1.30;;;19.00;49.40;;;;;;6281174;22;20132;-80
2022/01/25 10:19:06;;;;;;;2.78;1.33;;;19.10;49.40;;;;;;6281094;22;20552;-79
2022/01/25 10:21:35;;;;;;;5.00;1.40;;;19.00;49.20;;;;;;6306844;22;20437;-80
2022/01/25 10:24:05;;;;;;;3.38;1.15;;;19.00;49.20;;;;;;6279708;22;20128;-79
2022/01/25 10:26:33;;;;;;;4.53;1.30;;;19.00;49.30;;;;;;6255966;22;20232;-79
2022/01/25 10:28:59;;;;;;;4.03;0.93;;;19.00;49.20;;;;;;6255927;22;20152;-79
2022/01/25 10:31:39;;;;;;;3.65;1.30;;;19.00;50.00;;;;;;6281256;22;20124;-79
2022/01/25 10:34:07;;;;;;;3.92;1.13;;;19.00;49.60;;;;;;6308550;22;20128;-79
2022/01/25 10:36:33;;;;;;;5.07;1.00;;;19.00;50.20;;;;;;6308757;22;20214;-79
2022/01/25 10:38:59;;;;;;;3.60;1.10;;;18.90;50.20;;;;;;6281297;22;20139;-79
2022/01/25 10:41:27;;;;;;;7.00;1.30;;;18.90;50.50;;;;;;6308825;22;20156;-80
2022/01/25 10:43:54;;;;;;;4.80;1.15;;;18.90;50.30;;;;;;6281147;22;20148;-80
2022/01/25 10:46:26;;;;;;;4.30;1.30;;;19.00;50.10;;;;;;6309044;22;20552;-79
2022/01/25 10:48:57;;;;;;;5.15;1.25;;;19.00;50.50;;;;;;6308956;22;20208;-80
2022/01/25 10:51:27;;;;;;;2.80;1.00;;;19.00;50.40;;;;;;6308628;22;20132;-80
2022/01/25 10:53:59;;;;;;;8.23;1.50;;;19.00;50.00;;;;;;6309273;22;20144;-80
2022/01/25 10:56:25;;;;;;;4.32;1.27;;;19.00;50.30;;;;;;6308943;22;20230;-80
2022/01/25 10:58:50;;;;;;;2.58;1.10;;;19.00;50.30;;;;;;6309694;22;20630;-80
2022/01/25 11:01:29;;;;;;;5.38;1.30;;;19.00;49.40;;;;;;6309356;22;20128;-81
2022/01/25 11:04:02;;;;;;;3.63;0.95;;;19.00;50.10;;;;;;6308687;22;20140;-80
2022/01/25 11:06:28;;;;;;;4.43;1.13;;;19.00;50.00;;;;;;6309244;22;20467;-80
2022/01/25 11:08:58;;;;;;;3.03;1.20;;;19.10;49.70;;;;;;6308351;22;20129;-79
2022/01/25 11:11:24;;;;;;;3.83;1.25;;;19.10;49.40;;;;;;6308762;22;20586;-79
2022/01/25 11:13:52;;;;;;;3.53;1.38;;;19.10;49.80;;;;;;6308553;22;20152;-80
2022/01/25 11:16:18;;;;;;;4.40;1.10;;;19.10;49.60;;;;;;6308558;22;20133;-80
2022/01/25 11:18:44;;;;;;;3.33;1.15;;;19.10;50.00;;;;;;6308937;22;20616;-80
2022/01/25 11:21:10;;;;;;;2.38;1.20;;;19.00;50.40;;;;;;6308549;22;20135;-80
2022/01/25 11:23:40;;;;;;;5.47;1.30;;;19.00;50.20;;;;;;6308030;22;20168;-80
2022/01/25 11:26:13;;;;;;;5.90;0.90;;;19.00;50.40;;;;;;6308515;22;20186;-81
2022/01/25 11:28:39;;;;;;;3.85;1.15;;;19.00;50.30;;;;;;6308568;22;20144;-80
2022/01/25 11:31:17;;;;;;;4.03;1.10;;;19.00;50.40;;;;;;6281222;22;20128;-80
2022/01/25 11:33:44;;;;;;;4.65;1.40;;;19.00;50.40;;;;;;6308416;22;20559;-80
2022/01/25 11:36:10;;;;;;;3.22;1.15;;;19.00;49.40;;;;;;6308517;22;20144;-80
2022/01/25 11:38:42;;;;;;;3.30;1.05;;;19.10;49.20;;;;;;6255741;22;20556;-80
2022/01/25 11:41:10;;;;;;;3.88;1.20;;;19.10;50.10;;;;;;6280827;22;20128;-80
2022/01/25 11:43:36;;;;;;;6.82;1.33;;;19.10;50.10;;;;;;6308172;22;20175;-80
2022/01/25 11:46:05;;;;;;;3.80;1.20;;;19.10;50.20;;;;;;6308257;22;20459;-80
2022/01/25 11:48:41;;;;;;;5.38;1.52;;;19.00;50.50;;;;;;6308237;22;20133;-81
2022/01/25 11:51:17;;;;;;;1.92;1.13;;;19.00;50.60;;;;;;6281103;22;20136;-80
2022/01/25 11:53:45;;;;;;;3.38;1.20;;;18.90;50.50;;;;;;6308054;22;20213;-79
2022/01/25 11:56:11;;;;;;;3.10;1.20;;;18.90;50.70;;;;;;6307642;22;20627;-79
2022/01/25 11:58:37;;;;;;;2.22;1.00;;;19.00;50.40;;;;;;6307281;22;20232;-80
2022/01/25 12:01:06;;;;;;;3.28;1.38;;;19.00;49.40;;;;;;6254832;22;20235;-79
2022/01/25 12:03:49;;;;;;;1.77;1.13;;;19.00;50.00;;;;;;6280499;22;20191;-80
2022/01/25 12:06:20;;;;;;;1.67;1.10;;;19.00;50.00;;;;;;6255237;22;20169;-81
2022/01/25 12:08:52;;;;;;;4.50;1.27;;;19.10;50.10;;;;;;6307719;22;20129;-81
2022/01/25 12:11:48;;;;;;;3.83;1.20;;;19.10;50.10;;;;;;6308486;22;20136;-80
2022/01/25 12:14:18;;;;;;;2.35;1.00;;;19.00;50.30;;;;;;6308184;22;20132;-82
2022/01/25 12:16:49;;;;;;;4.10;1.17;;;19.00;49.50;;;;;;6281306;22;20516;-81
2022/01/25 12:19:16;;;;;;;3.00;1.20;;;19.10;50.00;;;;;;6281628;22;20132;-82
2022/01/25 12:21:54;;;;;;;2.08;0.90;;;19.00;50.50;;;;;;6255775;22;20143;-81
2022/01/25 12:24:35;;;;;;;4.45;1.30;;;19.00;49.90;;;;;;6281192;22;20217;-81
2022/01/25 12:27:10;;;;;;;1.92;1.10;;;19.10;50.10;;;;;;6258449;22;20124;-83
2022/01/25 12:29:40;;;;;;;1.67;0.88;;;19.10;50.00;;;;;;6283578;22;20134;-84
2022/01/25 12:32:19;;;;;;;3.03;1.10;;;19.10;49.70;;;;;;6309414;22;20132;-82
2022/01/25 12:35:07;;;;;;;2.22;1.00;;;19.10;49.70;;;;;;6256572;22;20155;-81
2022/01/25 12:37:54;;;;;;;3.28;1.13;;;19.10;49.90;;;;;;6280886;22;20247;-81
2022/01/25 12:40:31;;;;;;;1.38;0.85;;;19.10;49.20;;;;;;6282013;22;20183;-81
2022/01/25 12:42:59;;;;;;;4.18;1.25;;;19.10;49.60;;;;;;6256424;22;20270;-81
2022/01/25 12:45:28;;;;;;;3.03;1.08;;;19.10;49.50;;;;;;6281527;22;20132;-81
2022/01/25 12:47:56;;;;;;;3.17;0.95;;;19.10;49.90;;;;;;6308391;22;20201;-80
2022/01/25 12:50:22;;;;;;;1.40;0.98;;;19.10;49.20;;;;;;6281917;22;20133;-81
2022/01/25 12:52:48;;;;;;;2.08;0.93;;;19.10;49.00;;;;;;6256716;22;20187;-80
2022/01/25 12:55:14;;;;;;;4.55;1.13;;;19.10;49.20;;;;;;6281966;22;20132;-82
2022/01/25 12:57:55;;;;;;;2.40;1.02;;;19.20;49.10;;;;;;6255744;22;20192;-83
2022/01/25 13:00:23;;;;;;;1.80;1.10;;;19.20;48.90;;;;;;6255351;22;20556;-81
2022/01/25 13:02:49;;;;;;;1.80;1.10;;;19.20;48.80;;;;;;6254819;22;20270;-81
2022/01/25 13:05:17;;;;;;;2.03;0.80;;;19.20;48.30;;;;;;6308155;22;20139;-82
2022/01/25 13:07:43;;;;;;;1.15;0.90;;;19.20;48.80;;;;;;6255442;22;20189;-82
2022/01/25 13:10:11;;;;;;;3.17;1.10;;;19.20;49.00;;;;;;6255500;22;20175;-83
2022/01/25 13:12:56;;;;;;;2.80;1.00;;;19.30;48.80;;;;;;6281647;22;20133;-82
2022/01/25 13:15:50;;;;;;;1.35;0.80;;;19.30;48.50;;;;;;6240520;22;20201;-82
2022/01/25 13:18:14;;;;;;;1.75;1.02;;;19.20;49.10;;;;;;6242475;22;20591;-82
2022/01/25 13:20:44;;;;;;;1.25;0.80;;;19.20;48.60;;;;;;6231010;22;20148;-82
2022/01/25 13:23:14;;;;;;;2.42;0.82;;;19.20;49.20;;;;;;6231483;22;20183;-83
2022/01/25 13:31:08;;;;;;;2.17;0.90;;;19.20;49.70;;;;;;6309594;22;20132;-82
2022/01/25 13:33:38;;;;;;;2.05;1.10;;;19.10;49.60;;;;;;6229621;22;20156;-81
2022/01/25 13:36:08;;;;;;;1.85;0.90;;;19.10;49.80;;;;;;6228095;22;20148;-80
2022/01/25 13:38:38;;;;;;;2.70;1.23;;;19.20;49.40;;;;;;6204122;22;20144;-81
2022/01/25 13:41:25;;;;;;;1.80;0.95;;;19.20;49.70;;;;;;6228394;22;20148;-82
2022/01/25 13:46:42;;;;;;;1.63;1.00;;;19.20;49.40;;;;;;6222652;22;20478;-82
2022/01/25 13:49:17;;;;;;;1.60;0.82;;;19.20;49.60;;;;;;6257450;22;20215;-81
2022/01/25 13:51:52;;;;;;;1.60;1.10;;;19.10;49.50;;;;;;6232405;22;20148;-82
2022/01/25 13:54:22;;;;;;;1.88;1.00;;;19.10;49.70;;;;;;6259584;22;20210;-82
2022/01/25 13:56:47;;;;;;;1.17;1.08;;;19.10;49.90;;;;;;6258972;22;20223;-81
2022/01/25 13:59:14;;;;;;;2.33;0.90;;;19.10;49.60;;;;;;6258736;22;20479;-82
2022/01/25 14:01:40;;;;;;;1.88;0.98;;;19.10;49.70;;;;;;6232677;22;20136;-81
2022/01/25 14:04:09;;;;;;;3.00;1.25;;;19.10;49.40;;;;;;6232400;22;20136;-81
2022/01/25 14:06:39;;;;;;;3.72;1.20;;;19.00;49.40;;;;;;6310787;22;20174;-81
2022/01/25 14:09:08;;;;;;;2.03;1.00;;;19.10;49.50;;;;;;6283145;22;20131;-81
2022/01/25 14:21:30;;;;;;;3.28;1.15;;;19.20;48.90;;;;;;6283483;22;20167;-82
2022/01/25 14:22:47;;;;;;;3.13;0.90;;;19.10;49.40;;;;;;6284364;22;20249;-79
2022/01/25 14:25:14;;;;;;;1.95;0.90;;;19.20;49.30;;;;;;6281821;22;20586;-77
2022/01/25 14:27:50;;;;;;;4.22;0.85;;;19.10;49.50;;;;;;6230646;22;20155;-79
2022/01/25 14:30:17;;;;;;;4.43;0.95;;;19.10;49.70;;;;;;6257132;22;20150;-79
2022/01/25 14:32:44;;;;;;;4.72;1.20;;;19.10;49.90;;;;;;6255458;22;20235;-78
2022/01/25 14:35:11;;;;;;;6.32;1.30;;;19.10;49.20;;;;;;6280904;22;20230;-79
2022/01/25 14:37:48;;;;;;;4.57;1.25;;;19.10;50.00;;;;;;6282018;22;20124;-80
2022/01/25 14:40:15;;;;;;;2.20;0.98;;;19.10;49.50;;;;;;6306167;22;20185;-78